sensor_id;sensor_type;location;lat;lon;timestamp;temperature;humidity
10233;DHT22;5161;48.174;11.756;2023-03-21T00:01:05;11.00;65.20
10233;DHT22;5161;48.174;11.756;2023-03-21T00:03:32;11.00;65.30
10233;DHT22;5161;48.174;11.756;2023-03-21T00:06:03;11.00;65.50
10233;DHT22;5161;48.174;11.756;2023-03-21T00:08:29;11.00;65.50
10233;DHT22;5161;48.174;11.756;2023-03-21T00:10:59;11.00;65.40
10233;DHT22;5161;48.174;11.756;2023-03-21T00:13:26;11.00;65.50
10233;DHT22;5161;48.174;11.756;2023-03-21T00:15:52;11.00;65.50
10233;DHT22;5161;48.174;11.756;2023-03-21T00:18:21;10.90;65.50
10233;DHT22;5161;48.174;11.756;2023-03-21T00:20:57;11.00;65.80
10233;DHT22;5161;48.174;11.756;2023-03-21T00:23:25;11.00;65.70
10233;DHT22;5161;48.174;11.756;2023-03-21T00:25:50;11.00;65.70
10233;DHT22;5161;48.174;11.756;2023-03-21T00:28:16;11.00;65.70
10233;DHT22;5161;48.174;11.756;2023-03-21T00:30:41;10.90;65.60
10233;DHT22;5161;48.174;11.756;2023-03-21T00:33:07;10.90;65.70
10233;DHT22;5161;48.174;11.756;2023-03-21T00:35:32;11.00;65.90
10233;DHT22;5161;48.174;11.756;2023-03-21T00:37:58;10.90;65.70
10233;DHT22;5161;48.174;11.756;2023-03-21T00:40:24;10.90;65.80
10233;DHT22;5161;48.174;11.756;2023-03-21T00:42:49;10.90;65.90
10233;DHT22;5161;48.174;11.756;2023-03-21T00:45:15;10.80;65.90
10233;DHT22;5161;48.174;11.756;2023-03-21T00:47:43;10.90;66.00
10233;DHT22;5161;48.174;11.756;2023-03-21T00:50:09;10.90;65.90
10233;DHT22;5161;48.174;11.756;2023-03-21T00:52:36;10.80;65.90
10233;DHT22;5161;48.174;11.756;2023-03-21T00:55:03;10.80;66.10
10233;DHT22;5161;48.174;11.756;2023-03-21T00:57:29;10.80;66.10
10233;DHT22;5161;48.174;11.756;2023-03-21T00:59:54;10.80;66.10
10233;DHT22;5161;48.174;11.756;2023-03-21T01:02:22;10.80;66.10
10233;DHT22;5161;48.174;11.756;2023-03-21T01:04:53;10.80;66.10
10233;DHT22;5161;48.174;11.756;2023-03-21T01:07:19;10.80;66.30
10233;DHT22;5161;48.174;11.756;2023-03-21T01:09:45;10.80;66.30
10233;DHT22;5161;48.174;11.756;2023-03-21T01:12:11;10.80;66.30
10233;DHT22;5161;48.174;11.756;2023-03-21T01:14:36;10.80;66.50
10233;DHT22;5161;48.174;11.756;2023-03-21T01:17:03;10.80;66.40
10233;DHT22;5161;48.174;11.756;2023-03-21T01:19:29;10.80;66.60
10233;DHT22;5161;48.174;11.756;2023-03-21T01:21:55;10.80;66.60
10233;DHT22;5161;48.174;11.756;2023-03-21T01:24:22;10.80;66.70
10233;DHT22;5161;48.174;11.756;2023-03-21T01:26:48;10.90;67.50
10233;DHT22;5161;48.174;11.756;2023-03-21T01:29:13;10.90;67.00
10233;DHT22;5161;48.174;11.756;2023-03-21T01:31:39;10.90;67.00
10233;DHT22;5161;48.174;11.756;2023-03-21T01:34:05;10.90;67.00
10233;DHT22;5161;48.174;11.756;2023-03-21T01:36:30;10.90;67.10
10233;DHT22;5161;48.174;11.756;2023-03-21T01:38:56;10.90;67.00
10233;DHT22;5161;48.174;11.756;2023-03-21T01:41:38;10.90;67.00
10233;DHT22;5161;48.174;11.756;2023-03-21T01:44:04;10.90;67.10
10233;DHT22;5161;48.174;11.756;2023-03-21T01:46:36;10.90;67.20
10233;DHT22;5161;48.174;11.756;2023-03-21T01:49:16;10.90;67.20
10233;DHT22;5161;48.174;11.756;2023-03-21T01:51:50;10.90;67.10
10233;DHT22;5161;48.174;11.756;2023-03-21T01:54:22;10.80;67.30
10233;DHT22;5161;48.174;11.756;2023-03-21T01:56:50;10.90;67.40
10233;DHT22;5161;48.174;11.756;2023-03-21T01:59:45;10.90;67.50
10233;DHT22;5161;48.174;11.756;2023-03-21T02:02:26;10.90;67.60
10233;DHT22;5161;48.174;11.756;2023-03-21T02:04:52;10.90;67.40
10233;DHT22;5161;48.174;11.756;2023-03-21T02:07:33;10.90;67.50
10233;DHT22;5161;48.174;11.756;2023-03-21T02:10:02;10.90;67.70
10233;DHT22;5161;48.174;11.756;2023-03-21T02:12:30;10.80;67.60
10233;DHT22;5161;48.174;11.756;2023-03-21T02:14:57;10.90;67.80
10233;DHT22;5161;48.174;11.756;2023-03-21T02:28:50;10.80;67.70
10233;DHT22;5161;48.174;11.756;2023-03-21T02:31:49;10.80;68.10
10233;DHT22;5161;48.174;11.756;2023-03-21T02:34:46;10.90;68.10
10233;DHT22;5161;48.174;11.756;2023-03-21T02:37:50;10.80;68.00
10233;DHT22;5161;48.174;11.756;2023-03-21T02:45:51;10.70;67.90
10233;DHT22;5161;48.174;11.756;2023-03-21T02:48:23;10.70;68.20
10233;DHT22;5161;48.174;11.756;2023-03-21T02:50:53;10.70;68.40
10233;DHT22;5161;48.174;11.756;2023-03-21T02:53:22;10.80;68.60
10233;DHT22;5161;48.174;11.756;2023-03-21T02:55:48;10.80;68.40
10233;DHT22;5161;48.174;11.756;2023-03-21T02:58:19;10.80;68.30
10233;DHT22;5161;48.174;11.756;2023-03-21T03:00:46;10.80;68.60
10233;DHT22;5161;48.174;11.756;2023-03-21T03:03:13;10.80;68.70
10233;DHT22;5161;48.174;11.756;2023-03-21T03:05:49;10.80;68.60
10233;DHT22;5161;48.174;11.756;2023-03-21T03:11:23;10.90;68.80
10233;DHT22;5161;48.174;11.756;2023-03-21T03:16:38;10.90;68.50
10233;DHT22;5161;48.174;11.756;2023-03-21T03:19:10;10.80;68.60
10233;DHT22;5161;48.174;11.756;2023-03-21T03:21:45;10.80;68.70
10233;DHT22;5161;48.174;11.756;2023-03-21T03:24:26;10.90;68.70
10233;DHT22;5161;48.174;11.756;2023-03-21T03:29:29;10.80;68.60
10233;DHT22;5161;48.174;11.756;2023-03-21T03:32:09;10.80;68.80
10233;DHT22;5161;48.174;11.756;2023-03-21T03:34:40;10.80;69.00
10233;DHT22;5161;48.174;11.756;2023-03-21T03:37:11;10.80;68.90
10233;DHT22;5161;48.174;11.756;2023-03-21T03:42:20;10.80;69.00
10233;DHT22;5161;48.174;11.756;2023-03-21T03:44:47;10.80;68.90
10233;DHT22;5161;48.174;11.756;2023-03-21T03:52:36;10.70;68.80
10233;DHT22;5161;48.174;11.756;2023-03-21T03:55:03;10.70;69.00
10233;DHT22;5161;48.174;11.756;2023-03-21T03:57:29;10.70;69.00
10233;DHT22;5161;48.174;11.756;2023-03-21T03:59:54;10.70;69.00
10233;DHT22;5161;48.174;11.756;2023-03-21T04:02:20;10.70;69.10
10233;DHT22;5161;48.174;11.756;2023-03-21T04:04:46;10.70;69.10
10233;DHT22;5161;48.174;11.756;2023-03-21T04:07:12;10.70;69.10
10233;DHT22;5161;48.174;11.756;2023-03-21T04:09:38;10.70;69.20
10233;DHT22;5161;48.174;11.756;2023-03-21T04:12:03;10.70;69.20
10233;DHT22;5161;48.174;11.756;2023-03-21T04:14:29;10.70;69.20
10233;DHT22;5161;48.174;11.756;2023-03-21T04:16:55;10.70;69.20
10233;DHT22;5161;48.174;11.756;2023-03-21T04:19:20;10.70;69.20
10233;DHT22;5161;48.174;11.756;2023-03-21T04:21:46;10.70;69.30
10233;DHT22;5161;48.174;11.756;2023-03-21T04:24:12;10.70;69.30
10233;DHT22;5161;48.174;11.756;2023-03-21T04:26:38;10.80;69.40
10233;DHT22;5161;48.174;11.756;2023-03-21T04:29:04;10.70;69.30
10233;DHT22;5161;48.174;11.756;2023-03-21T04:31:31;10.70;69.30
10233;DHT22;5161;48.174;11.756;2023-03-21T04:34:03;10.70;69.40
10233;DHT22;5161;48.174;11.756;2023-03-21T04:36:35;10.80;69.60
10233;DHT22;5161;48.174;11.756;2023-03-21T04:39:07;10.80;69.50
10233;DHT22;5161;48.174;11.756;2023-03-21T04:41:40;10.70;69.40
10233;DHT22;5161;48.174;11.756;2023-03-21T04:44:06;10.70;69.60
10233;DHT22;5161;48.174;11.756;2023-03-21T04:46:33;10.80;69.60
10233;DHT22;5161;48.174;11.756;2023-03-21T04:48:58;10.80;69.70
10233;DHT22;5161;48.174;11.756;2023-03-21T04:51:24;10.80;69.70
10233;DHT22;5161;48.174;11.756;2023-03-21T04:53:50;10.70;69.50
10233;DHT22;5161;48.174;11.756;2023-03-21T04:56:17;10.60;69.50
10233;DHT22;5161;48.174;11.756;2023-03-21T04:58:43;10.60;69.60
10233;DHT22;5161;48.174;11.756;2023-03-21T05:01:09;10.50;69.70
10233;DHT22;5161;48.174;11.756;2023-03-21T05:03:34;10.50;69.80
10233;DHT22;5161;48.174;11.756;2023-03-21T05:06:06;10.50;70.00
10233;DHT22;5161;48.174;11.756;2023-03-21T05:08:33;10.50;70.10
10233;DHT22;5161;48.174;11.756;2023-03-21T05:10:59;10.50;70.10
10233;DHT22;5161;48.174;11.756;2023-03-21T05:13:24;10.50;70.00
10233;DHT22;5161;48.174;11.756;2023-03-21T05:15:50;10.60;70.20
10233;DHT22;5161;48.174;11.756;2023-03-21T05:18:16;10.50;70.20
10233;DHT22;5161;48.174;11.756;2023-03-21T05:20:50;10.60;70.30
10233;DHT22;5161;48.174;11.756;2023-03-21T05:23:19;10.60;70.30
10233;DHT22;5161;48.174;11.756;2023-03-21T05:25:45;10.50;70.30
10233;DHT22;5161;48.174;11.756;2023-03-21T05:28:11;10.60;70.30
10233;DHT22;5161;48.174;11.756;2023-03-21T05:30:36;10.50;70.20
10233;DHT22;5161;48.174;11.756;2023-03-21T05:33:02;10.50;70.40
10233;DHT22;5161;48.174;11.756;2023-03-21T05:35:28;10.60;70.50
10233;DHT22;5161;48.174;11.756;2023-03-21T05:37:55;10.60;70.50
10233;DHT22;5161;48.174;11.756;2023-03-21T05:40:21;10.50;70.40
10233;DHT22;5161;48.174;11.756;2023-03-21T05:42:47;10.60;70.60
10233;DHT22;5161;48.174;11.756;2023-03-21T05:45:13;10.60;70.60
10233;DHT22;5161;48.174;11.756;2023-03-21T05:47:39;10.60;70.60
10233;DHT22;5161;48.174;11.756;2023-03-21T05:50:05;10.60;70.60
10233;DHT22;5161;48.174;11.756;2023-03-21T05:52:31;10.60;70.50
10233;DHT22;5161;48.174;11.756;2023-03-21T05:54:57;10.60;70.60
10233;DHT22;5161;48.174;11.756;2023-03-21T05:57:23;10.60;70.70
10233;DHT22;5161;48.174;11.756;2023-03-21T05:59:48;10.60;70.70
10233;DHT22;5161;48.174;11.756;2023-03-21T06:02:14;10.70;70.80
10233;DHT22;5161;48.174;11.756;2023-03-21T06:04:40;10.70;71.00
10233;DHT22;5161;48.174;11.756;2023-03-21T06:07:05;10.70;71.00
10233;DHT22;5161;48.174;11.756;2023-03-21T06:09:31;10.70;71.00
10233;DHT22;5161;48.174;11.756;2023-03-21T06:11:58;10.60;71.50
10233;DHT22;5161;48.174;11.756;2023-03-21T06:14:24;10.60;71.00
10233;DHT22;5161;48.174;11.756;2023-03-21T06:16:49;10.50;71.40
10233;DHT22;5161;48.174;11.756;2023-03-21T06:19:16;10.50;71.30
10233;DHT22;5161;48.174;11.756;2023-03-21T06:21:42;10.50;71.40
10233;DHT22;5161;48.174;11.756;2023-03-21T06:24:08;10.60;71.40
10233;DHT22;5161;48.174;11.756;2023-03-21T06:26:34;10.60;71.40
10233;DHT22;5161;48.174;11.756;2023-03-21T06:29:00;10.60;71.40
10233;DHT22;5161;48.174;11.756;2023-03-21T06:31:26;10.60;71.50
10233;DHT22;5161;48.174;11.756;2023-03-21T06:33:52;10.50;71.60
10233;DHT22;5161;48.174;11.756;2023-03-21T06:36:17;10.50;71.70
10233;DHT22;5161;48.174;11.756;2023-03-21T06:38:43;10.60;71.90
10233;DHT22;5161;48.174;11.756;2023-03-21T06:41:11;10.60;72.30
10233;DHT22;5161;48.174;11.756;2023-03-21T06:43:37;10.90;72.80
10233;DHT22;5161;48.174;11.756;2023-03-21T06:46:02;11.00;72.60
10233;DHT22;5161;48.174;11.756;2023-03-21T06:48:30;11.00;72.20
10233;DHT22;5161;48.174;11.756;2023-03-21T06:50:55;10.90;72.00
10233;DHT22;5161;48.174;11.756;2023-03-21T06:53:23;10.90;72.10
10233;DHT22;5161;48.174;11.756;2023-03-21T06:55:52;10.80;72.20
10233;DHT22;5161;48.174;11.756;2023-03-21T06:58:17;10.90;72.60
10233;DHT22;5161;48.174;11.756;2023-03-21T07:00:43;10.90;72.50
10233;DHT22;5161;48.174;11.756;2023-03-21T07:03:10;10.90;72.50
10233;DHT22;5161;48.174;11.756;2023-03-21T07:05:43;10.90;72.50
10233;DHT22;5161;48.174;11.756;2023-03-21T07:08:12;11.00;72.70
10233;DHT22;5161;48.174;11.756;2023-03-21T07:10:42;11.00;72.50
10233;DHT22;5161;48.174;11.756;2023-03-21T07:13:11;11.00;72.60
10233;DHT22;5161;48.174;11.756;2023-03-21T07:15:37;10.90;72.40
10233;DHT22;5161;48.174;11.756;2023-03-21T07:18:04;11.00;72.50
10233;DHT22;5161;48.174;11.756;2023-03-21T07:20:30;11.00;72.50
10233;DHT22;5161;48.174;11.756;2023-03-21T07:22:56;11.10;72.40
10233;DHT22;5161;48.174;11.756;2023-03-21T07:25:22;11.10;72.40
10233;DHT22;5161;48.174;11.756;2023-03-21T07:27:48;11.20;72.40
10233;DHT22;5161;48.174;11.756;2023-03-21T07:30:15;11.20;72.40
10233;DHT22;5161;48.174;11.756;2023-03-21T07:32:41;11.20;72.30
10233;DHT22;5161;48.174;11.756;2023-03-21T07:35:10;11.20;72.10
10233;DHT22;5161;48.174;11.756;2023-03-21T07:37:37;11.20;72.00
10233;DHT22;5161;48.174;11.756;2023-03-21T07:40:03;11.30;71.90
10233;DHT22;5161;48.174;11.756;2023-03-21T07:42:35;11.30;71.70
10233;DHT22;5161;48.174;11.756;2023-03-21T07:45:01;11.30;71.50
10233;DHT22;5161;48.174;11.756;2023-03-21T07:47:29;11.40;71.50
10233;DHT22;5161;48.174;11.756;2023-03-21T07:49:55;11.40;71.20
10233;DHT22;5161;48.174;11.756;2023-03-21T07:52:21;11.40;71.20
10233;DHT22;5161;48.174;11.756;2023-03-21T07:54:46;11.50;71.00
10233;DHT22;5161;48.174;11.756;2023-03-21T07:57:12;11.50;71.10
10233;DHT22;5161;48.174;11.756;2023-03-21T07:59:37;11.60;71.10
10233;DHT22;5161;48.174;11.756;2023-03-21T08:02:03;11.60;71.00
10233;DHT22;5161;48.174;11.756;2023-03-21T08:04:35;11.60;70.30
10233;DHT22;5161;48.174;11.756;2023-03-21T08:07:11;11.60;70.40
10233;DHT22;5161;48.174;11.756;2023-03-21T08:09:47;11.60;70.40
10233;DHT22;5161;48.174;11.756;2023-03-21T08:12:15;11.70;70.50
10233;DHT22;5161;48.174;11.756;2023-03-21T08:14:42;11.70;70.50
10233;DHT22;5161;48.174;11.756;2023-03-21T08:17:12;11.70;70.50
10233;DHT22;5161;48.174;11.756;2023-03-21T08:19:43;11.80;70.60
10233;DHT22;5161;48.174;11.756;2023-03-21T08:22:09;11.80;70.70
10233;DHT22;5161;48.174;11.756;2023-03-21T08:24:35;11.90;70.70
10233;DHT22;5161;48.174;11.756;2023-03-21T08:27:08;11.90;70.50
10233;DHT22;5161;48.174;11.756;2023-03-21T08:29:39;11.90;70.30
10233;DHT22;5161;48.174;11.756;2023-03-21T08:32:08;12.00;70.20
10233;DHT22;5161;48.174;11.756;2023-03-21T08:34:36;12.00;70.30
10233;DHT22;5161;48.174;11.756;2023-03-21T08:37:02;12.00;70.40
10233;DHT22;5161;48.174;11.756;2023-03-21T08:39:34;12.00;70.30
10233;DHT22;5161;48.174;11.756;2023-03-21T08:42:00;12.10;70.40
10233;DHT22;5161;48.174;11.756;2023-03-21T08:44:32;12.10;70.30
10233;DHT22;5161;48.174;11.756;2023-03-21T08:46:58;12.10;70.20
10233;DHT22;5161;48.174;11.756;2023-03-21T08:49:24;12.10;69.90
10233;DHT22;5161;48.174;11.756;2023-03-21T08:51:54;12.10;69.90
10233;DHT22;5161;48.174;11.756;2023-03-21T08:54:21;12.20;69.90
10233;DHT22;5161;48.174;11.756;2023-03-21T08:56:47;12.10;69.70
10233;DHT22;5161;48.174;11.756;2023-03-21T08:59:19;12.10;69.70
10233;DHT22;5161;48.174;11.756;2023-03-21T09:01:45;12.20;69.90
10233;DHT22;5161;48.174;11.756;2023-03-21T09:04:16;12.20;69.50
10233;DHT22;5161;48.174;11.756;2023-03-21T09:06:43;12.20;69.00
10233;DHT22;5161;48.174;11.756;2023-03-21T09:09:13;12.20;68.80
10233;DHT22;5161;48.174;11.756;2023-03-21T09:11:48;12.20;69.60
10233;DHT22;5161;48.174;11.756;2023-03-21T09:14:18;12.20;68.90
10233;DHT22;5161;48.174;11.756;2023-03-21T09:16:46;12.20;68.70
10233;DHT22;5161;48.174;11.756;2023-03-21T09:19:23;12.30;69.00
10233;DHT22;5161;48.174;11.756;2023-03-21T09:21:55;12.30;68.30
10233;DHT22;5161;48.174;11.756;2023-03-21T09:24:21;12.40;68.60
10233;DHT22;5161;48.174;11.756;2023-03-21T09:26:47;12.40;69.20
10233;DHT22;5161;48.174;11.756;2023-03-21T09:29:15;12.30;68.60
10233;DHT22;5161;48.174;11.756;2023-03-21T09:31:41;12.40;68.70
10233;DHT22;5161;48.174;11.756;2023-03-21T09:34:07;12.40;68.60
10233;DHT22;5161;48.174;11.756;2023-03-21T09:36:33;12.50;68.80
10233;DHT22;5161;48.174;11.756;2023-03-21T09:39:01;12.60;68.80
10233;DHT22;5161;48.174;11.756;2023-03-21T09:44:46;12.70;69.00
10233;DHT22;5161;48.174;11.756;2023-03-21T09:47:25;12.70;69.00
10233;DHT22;5161;48.174;11.756;2023-03-21T09:53:18;12.90;68.50
10233;DHT22;5161;48.174;11.756;2023-03-21T09:55:24;12.90;68.70
10233;DHT22;5161;48.174;11.756;2023-03-21T10:00:48;12.90;68.60
10233;DHT22;5161;48.174;11.756;2023-03-21T10:03:23;13.00;68.20
10233;DHT22;5161;48.174;11.756;2023-03-21T10:05:51;13.10;68.30
10233;DHT22;5161;48.174;11.756;2023-03-21T10:08:35;13.10;68.30
10233;DHT22;5161;48.174;11.756;2023-03-21T10:14:04;13.00;66.40
10233;DHT22;5161;48.174;11.756;2023-03-21T10:16:34;13.00;66.60
10233;DHT22;5161;48.174;11.756;2023-03-21T10:19:06;13.00;67.00
10233;DHT22;5161;48.174;11.756;2023-03-21T10:21:38;13.00;67.10
10233;DHT22;5161;48.174;11.756;2023-03-21T10:24:04;13.00;67.00
10233;DHT22;5161;48.174;11.756;2023-03-21T10:26:30;13.10;66.50
10233;DHT22;5161;48.174;11.756;2023-03-21T10:29:01;13.10;65.50
10233;DHT22;5161;48.174;11.756;2023-03-21T10:31:28;13.10;66.20
10233;DHT22;5161;48.174;11.756;2023-03-21T10:33:58;13.10;66.60
10233;DHT22;5161;48.174;11.756;2023-03-21T10:36:27;13.20;66.50
10233;DHT22;5161;48.174;11.756;2023-03-21T10:39:05;13.20;66.10
10233;DHT22;5161;48.174;11.756;2023-03-21T10:41:32;13.30;66.50
10233;DHT22;5161;48.174;11.756;2023-03-21T10:44:13;13.30;66.70
10233;DHT22;5161;48.174;11.756;2023-03-21T10:46:52;13.40;66.00
10233;DHT22;5161;48.174;11.756;2023-03-21T10:49:19;13.40;64.70
10233;DHT22;5161;48.174;11.756;2023-03-21T10:51:50;13.40;65.60
10233;DHT22;5161;48.174;11.756;2023-03-21T10:54:19;13.50;65.60
10233;DHT22;5161;48.174;11.756;2023-03-21T10:57:05;13.60;66.30
10233;DHT22;5161;48.174;11.756;2023-03-21T11:00:02;13.70;66.20
10233;DHT22;5161;48.174;11.756;2023-03-21T11:02:45;13.80;65.90
10233;DHT22;5161;48.174;11.756;2023-03-21T11:05:51;13.80;65.30
10233;DHT22;5161;48.174;11.756;2023-03-21T11:08:23;13.90;65.70
10233;DHT22;5161;48.174;11.756;2023-03-21T11:11:07;14.00;66.20
10233;DHT22;5161;48.174;11.756;2023-03-21T11:13:42;14.00;66.10
10233;DHT22;5161;48.174;11.756;2023-03-21T11:16:30;14.20;66.20
10233;DHT22;5161;48.174;11.756;2023-03-21T11:19:00;14.20;66.20
10233;DHT22;5161;48.174;11.756;2023-03-21T11:21:26;14.40;66.00
10233;DHT22;5161;48.174;11.756;2023-03-21T11:24:02;14.40;65.60
10233;DHT22;5161;48.174;11.756;2023-03-21T11:26:45;14.50;65.90
10233;DHT22;5161;48.174;11.756;2023-03-21T11:32:44;14.60;64.90
10233;DHT22;5161;48.174;11.756;2023-03-21T11:35:24;14.70;65.60
10233;DHT22;5161;48.174;11.756;2023-03-21T11:37:55;14.80;65.90
10233;DHT22;5161;48.174;11.756;2023-03-21T11:40:36;14.90;65.80
10233;DHT22;5161;48.174;11.756;2023-03-21T11:46:24;15.00;64.90
10233;DHT22;5161;48.174;11.756;2023-03-21T11:48:58;15.10;64.60
10233;DHT22;5161;48.174;11.756;2023-03-21T11:51:39;15.20;63.70
10233;DHT22;5161;48.174;11.756;2023-03-21T11:54:27;15.20;63.90
10233;DHT22;5161;48.174;11.756;2023-03-21T11:57:14;15.40;62.70
10233;DHT22;5161;48.174;11.756;2023-03-21T11:59:56;15.50;63.30
10233;DHT22;5161;48.174;11.756;2023-03-21T12:05:17;15.70;62.50
10233;DHT22;5161;48.174;11.756;2023-03-21T12:10:30;16.10;64.00
10233;DHT22;5161;48.174;11.756;2023-03-21T12:15:39;16.30;62.30
10233;DHT22;5161;48.174;11.756;2023-03-21T12:18:40;16.40;62.40
10233;DHT22;5161;48.174;11.756;2023-03-21T12:21:53;16.60;62.50
10233;DHT22;5161;48.174;11.756;2023-03-21T12:24:27;16.80;61.70
10233;DHT22;5161;48.174;11.756;2023-03-21T12:33:28;18.00;61.50
10233;DHT22;5161;48.174;11.756;2023-03-21T12:38:32;18.50;59.50
10233;DHT22;5161;48.174;11.756;2023-03-21T12:41:16;18.90;59.30
10233;DHT22;5161;48.174;11.756;2023-03-21T12:46:38;19.20;58.50
10233;DHT22;5161;48.174;11.756;2023-03-21T12:49:33;19.40;56.60
10233;DHT22;5161;48.174;11.756;2023-03-21T12:52:10;19.40;56.50
10233;DHT22;5161;48.174;11.756;2023-03-21T12:54:38;19.20;57.60
10233;DHT22;5161;48.174;11.756;2023-03-21T12:57:21;19.00;57.80
10233;DHT22;5161;48.174;11.756;2023-03-21T12:59:55;18.70;56.30
10233;DHT22;5161;48.174;11.756;2023-03-21T13:05:17;18.10;57.30
10233;DHT22;5161;48.174;11.756;2023-03-21T13:08:00;17.90;55.70
10233;DHT22;5161;48.174;11.756;2023-03-21T13:10:29;17.80;56.50
10233;DHT22;5161;48.174;11.756;2023-03-21T13:24:17;17.70;56.50
10233;DHT22;5161;48.174;11.756;2023-03-21T13:26:47;17.70;57.20
10233;DHT22;5161;48.174;11.756;2023-03-21T13:29:23;17.70;57.10
10233;DHT22;5161;48.174;11.756;2023-03-21T13:31:51;17.70;57.10
10233;DHT22;5161;48.174;11.756;2023-03-21T13:34:20;17.70;57.00
10233;DHT22;5161;48.174;11.756;2023-03-21T13:36:48;17.60;57.00
10233;DHT22;5161;48.174;11.756;2023-03-21T13:39:24;17.50;56.40
10233;DHT22;5161;48.174;11.756;2023-03-21T13:41:50;17.50;56.80
10233;DHT22;5161;48.174;11.756;2023-03-21T13:47:05;17.40;56.40
10233;DHT22;5161;48.174;11.756;2023-03-21T13:50:26;17.40;56.70
10233;DHT22;5161;48.174;11.756;2023-03-21T13:55:41;17.30;56.00
10233;DHT22;5161;48.174;11.756;2023-03-21T13:58:38;17.20;55.80
10233;DHT22;5161;48.174;11.756;2023-03-21T14:04:18;17.10;55.90
10233;DHT22;5161;48.174;11.756;2023-03-21T14:06:56;17.10;56.20
10233;DHT22;5161;48.174;11.756;2023-03-21T14:09:36;17.10;56.00
10233;DHT22;5161;48.174;11.756;2023-03-21T14:12:07;17.10;56.50
10233;DHT22;5161;48.174;11.756;2023-03-21T14:14:45;17.10;56.60
10233;DHT22;5161;48.174;11.756;2023-03-21T14:17:30;17.20;56.50
10233;DHT22;5161;48.174;11.756;2023-03-21T14:20:00;17.30;56.80
10233;DHT22;5161;48.174;11.756;2023-03-21T14:22:26;17.20;56.80
10233;DHT22;5161;48.174;11.756;2023-03-21T14:24:57;17.30;57.00
10233;DHT22;5161;48.174;11.756;2023-03-21T14:27:26;17.40;56.60
10233;DHT22;5161;48.174;11.756;2023-03-21T14:29:54;17.50;57.10
10233;DHT22;5161;48.174;11.756;2023-03-21T14:32:22;17.50;57.00
10233;DHT22;5161;48.174;11.756;2023-03-21T14:34:49;17.60;56.40
10233;DHT22;5161;48.174;11.756;2023-03-21T14:37:31;17.70;57.10
10233;DHT22;5161;48.174;11.756;2023-03-21T14:40:02;17.80;56.70
10233;DHT22;5161;48.174;11.756;2023-03-21T14:42:35;18.00;57.30
10233;DHT22;5161;48.174;11.756;2023-03-21T14:45:20;18.20;57.30
10233;DHT22;5161;48.174;11.756;2023-03-21T14:48:11;18.40;57.30
10233;DHT22;5161;48.174;11.756;2023-03-21T14:50:50;18.50;56.60
10233;DHT22;5161;48.174;11.756;2023-03-21T14:53:20;18.60;56.90
10233;DHT22;5161;48.174;11.756;2023-03-21T14:55:52;18.80;57.00
10233;DHT22;5161;48.174;11.756;2023-03-21T14:58:21;19.00;57.30
10233;DHT22;5161;48.174;11.756;2023-03-21T15:00:49;19.00;56.90
10233;DHT22;5161;48.174;11.756;2023-03-21T15:03:17;19.10;57.10
10233;DHT22;5161;48.174;11.756;2023-03-21T15:05:53;19.00;56.10
10233;DHT22;5161;48.174;11.756;2023-03-21T15:08:21;18.90;56.20
10233;DHT22;5161;48.174;11.756;2023-03-21T15:11:00;18.90;56.30
10233;DHT22;5161;48.174;11.756;2023-03-21T15:13:35;18.90;54.40
10233;DHT22;5161;48.174;11.756;2023-03-21T15:16:04;18.80;55.70
10233;DHT22;5161;48.174;11.756;2023-03-21T15:18:37;18.70;55.40
10233;DHT22;5161;48.174;11.756;2023-03-21T15:21:12;18.60;55.80
10233;DHT22;5161;48.174;11.756;2023-03-21T15:23:45;18.50;55.00
10233;DHT22;5161;48.174;11.756;2023-03-21T15:26:17;18.40;55.20
10233;DHT22;5161;48.174;11.756;2023-03-21T15:28:45;18.30;55.40
10233;DHT22;5161;48.174;11.756;2023-03-21T15:31:27;18.20;55.30
10233;DHT22;5161;48.174;11.756;2023-03-21T15:33:56;18.20;55.40
10233;DHT22;5161;48.174;11.756;2023-03-21T15:36:35;18.10;55.10
10233;DHT22;5161;48.174;11.756;2023-03-21T15:39:06;18.00;55.50
10233;DHT22;5161;48.174;11.756;2023-03-21T15:41:36;17.90;55.40
10233;DHT22;5161;48.174;11.756;2023-03-21T15:44:12;17.80;55.50
10233;DHT22;5161;48.174;11.756;2023-03-21T15:46:50;17.70;55.50
10233;DHT22;5161;48.174;11.756;2023-03-21T15:49:22;17.60;55.50
10233;DHT22;5161;48.174;11.756;2023-03-21T15:55:09;17.50;55.80
10233;DHT22;5161;48.174;11.756;2023-03-21T15:57:45;17.40;55.60
10233;DHT22;5161;48.174;11.756;2023-03-21T16:03:03;17.30;55.70
10233;DHT22;5161;48.174;11.756;2023-03-21T16:05:36;17.20;55.60
10233;DHT22;5161;48.174;11.756;2023-03-21T16:09:02;17.10;55.40
10233;DHT22;5161;48.174;11.756;2023-03-21T16:11:40;17.10;55.50
10233;DHT22;5161;48.174;11.756;2023-03-21T16:14:09;17.00;55.30
10233;DHT22;5161;48.174;11.756;2023-03-21T16:16:35;16.90;55.40
10233;DHT22;5161;48.174;11.756;2023-03-21T16:19:01;16.90;55.30
10233;DHT22;5161;48.174;11.756;2023-03-21T16:21:29;16.90;55.50
10233;DHT22;5161;48.174;11.756;2023-03-21T16:23:55;16.80;55.40
10233;DHT22;5161;48.174;11.756;2023-03-21T16:26:24;16.80;55.30
10233;DHT22;5161;48.174;11.756;2023-03-21T16:28:50;16.80;55.40
10233;DHT22;5161;48.174;11.756;2023-03-21T16:31:22;16.70;55.40
10233;DHT22;5161;48.174;11.756;2023-03-21T16:33:48;16.60;55.50
10233;DHT22;5161;48.174;11.756;2023-03-21T16:36:30;16.60;55.50
10233;DHT22;5161;48.174;11.756;2023-03-21T16:38:57;16.50;55.60
10233;DHT22;5161;48.174;11.756;2023-03-21T16:41:24;16.50;55.50
10233;DHT22;5161;48.174;11.756;2023-03-21T16:43:50;16.50;55.70
10233;DHT22;5161;48.174;11.756;2023-03-21T16:46:17;16.40;55.70
10233;DHT22;5161;48.174;11.756;2023-03-21T16:48:45;16.40;56.20
10233;DHT22;5161;48.174;11.756;2023-03-21T16:51:13;16.40;56.40
10233;DHT22;5161;48.174;11.756;2023-03-21T16:53:39;16.40;56.00
10233;DHT22;5161;48.174;11.756;2023-03-21T16:56:05;16.30;55.90
10233;DHT22;5161;48.174;11.756;2023-03-21T16:58:31;16.30;56.00
10233;DHT22;5161;48.174;11.756;2023-03-21T17:00:56;16.20;56.10
10233;DHT22;5161;48.174;11.756;2023-03-21T17:03:22;16.20;56.20
10233;DHT22;5161;48.174;11.756;2023-03-21T17:05:48;16.20;56.20
10233;DHT22;5161;48.174;11.756;2023-03-21T17:08:16;16.20;56.30
10233;DHT22;5161;48.174;11.756;2023-03-21T17:10:42;16.20;56.30
10233;DHT22;5161;48.174;11.756;2023-03-21T17:13:08;16.20;56.30
10233;DHT22;5161;48.174;11.756;2023-03-21T17:15:33;16.10;56.40
10233;DHT22;5161;48.174;11.756;2023-03-21T17:17:59;16.10;56.40
10233;DHT22;5161;48.174;11.756;2023-03-21T17:20:34;16.10;56.50
10233;DHT22;5161;48.174;11.756;2023-03-21T17:23:02;16.10;56.60
10233;DHT22;5161;48.174;11.756;2023-03-21T17:25:28;16.10;57.10
10233;DHT22;5161;48.174;11.756;2023-03-21T17:27:53;16.10;56.70
10233;DHT22;5161;48.174;11.756;2023-03-21T17:30:29;16.00;56.60
10233;DHT22;5161;48.174;11.756;2023-03-21T17:32:55;16.00;56.70